createdAt,value
2018-02-04T00:00:31.857Z,8.47
2018-02-04T00:02:59.656Z,7.13
2018-02-04T00:05:27.532Z,7.73
2018-02-04T00:07:58.603Z,7.40
2018-02-04T00:10:26.498Z,7.03
2018-02-04T00:13:01.511Z,8.20
2018-02-04T00:15:58.551Z,8.70
2018-02-04T00:18:26.478Z,7.80
2018-02-04T00:20:54.431Z,8.80
2018-02-04T00:23:22.236Z,7.10
2018-02-04T00:25:50.100Z,7.80
2018-02-04T00:28:17.976Z,9.13
2018-02-04T00:30:46.073Z,8.77
2018-02-04T00:33:14.529Z,9.10
2018-02-04T00:35:42.415Z,9.80
2018-02-04T00:38:10.336Z,9.00
2018-02-04T00:40:38.174Z,9.23
2018-02-04T00:43:06.020Z,7.87
2018-02-04T00:45:33.900Z,7.53
2018-02-04T00:48:01.649Z,8.57
2018-02-04T00:50:29.510Z,8.77
2018-02-04T00:52:57.411Z,8.77
2018-02-04T00:55:38.421Z,9.23
2018-02-04T00:58:29.041Z,9.73
2018-02-04T01:01:03.249Z,8.83
2018-02-04T01:03:38.260Z,7.67
2018-02-04T01:06:06.175Z,9.70
2018-02-04T01:08:33.981Z,6.90
2018-02-04T01:11:01.855Z,6.40
2018-02-04T01:13:29.719Z,8.00
2018-02-04T01:15:57.563Z,9.50
2018-02-04T01:18:25.338Z,8.17
2018-02-04T01:20:53.176Z,8.80
2018-02-04T01:23:20.963Z,6.50
2018-02-04T01:25:48.780Z,7.43
2018-02-04T01:28:16.675Z,5.10
2018-02-04T01:30:44.541Z,4.83
2018-02-04T01:33:12.366Z,5.30
2018-02-04T01:35:40.265Z,5.17
2018-02-04T01:38:08.090Z,6.33
2018-02-04T01:40:35.944Z,6.10
2018-02-04T01:43:03.752Z,7.23
2018-02-04T01:45:31.604Z,6.77
2018-02-04T01:48:08.248Z,6.90
2018-02-04T01:50:36.063Z,7.23
2018-02-04T01:53:03.834Z,7.27
2018-02-04T01:55:31.650Z,6.90
2018-02-04T01:57:59.443Z,8.17
2018-02-04T02:00:27.288Z,6.63
2018-02-04T02:02:55.060Z,7.43
2018-02-04T02:05:22.897Z,8.17
2018-02-04T02:07:50.775Z,8.60
2018-02-04T02:10:18.576Z,7.53
2018-02-04T02:12:46.439Z,5.70
2018-02-04T02:15:14.271Z,6.03
2018-02-04T02:17:42.116Z,4.70
2018-02-04T02:20:09.916Z,5.60
2018-02-04T02:22:37.760Z,6.43
2018-02-04T02:25:05.572Z,6.53
2018-02-04T02:27:33.390Z,6.63
2018-02-04T02:30:01.172Z,6.80
2018-02-04T02:32:29.000Z,7.97
2018-02-04T02:34:56.824Z,8.80
2018-02-04T02:37:24.735Z,8.60
2018-02-04T02:39:52.455Z,7.80
2018-02-04T02:42:20.332Z,8.60
2018-02-04T02:44:48.140Z,9.23
2018-02-04T02:47:15.970Z,9.23
2018-02-04T02:49:43.769Z,8.47
2018-02-04T02:52:11.648Z,9.67
2018-02-04T02:54:39.501Z,8.60
2018-02-04T02:57:07.340Z,9.83
2018-02-04T02:59:35.142Z,9.10
2018-02-04T03:02:02.975Z,9.00
2018-02-04T03:04:30.805Z,9.23
2018-02-04T03:06:58.623Z,10.30
2018-02-04T03:09:26.352Z,9.40
2018-02-04T03:11:54.184Z,9.50
2018-02-04T03:14:21.975Z,10.10
2018-02-04T03:16:49.833Z,10.57
2018-02-04T03:19:17.695Z,10.23
2018-02-04T03:21:45.556Z,9.67
2018-02-04T03:24:13.342Z,8.63
2018-02-04T03:26:41.188Z,9.90
2018-02-04T03:29:09.028Z,10.10
2018-02-04T03:31:36.900Z,10.03
2018-02-04T03:34:04.724Z,9.77
2018-02-04T03:36:32.599Z,9.87
2018-02-04T03:39:00.448Z,10.07
2018-02-04T03:41:28.335Z,9.97
2018-02-04T03:43:56.144Z,10.20
2018-02-04T03:46:23.988Z,10.27
2018-02-04T03:48:51.770Z,9.50
2018-02-04T03:51:19.575Z,9.87
2018-02-04T03:53:47.411Z,9.70
2018-02-04T03:56:15.258Z,9.43
2018-02-04T03:58:43.099Z,10.13
2018-02-04T04:01:10.936Z,9.97
2018-02-04T04:03:38.802Z,9.30
2018-02-04T04:06:06.648Z,8.73
2018-02-04T04:08:34.507Z,8.77
2018-02-04T04:11:02.297Z,9.20
2018-02-04T04:13:30.137Z,9.33
2018-02-04T04:15:57.927Z,9.37
2018-02-04T04:18:25.751Z,8.47
2018-02-04T04:20:53.548Z,9.80
2018-02-04T04:23:21.393Z,9.73
2018-02-04T04:25:49.177Z,9.20
2018-02-04T04:28:17.036Z,9.67
2018-02-04T04:30:44.878Z,10.27
2018-02-04T04:33:12.766Z,10.40
2018-02-04T04:35:40.537Z,9.70
2018-02-04T04:38:08.405Z,10.07
2018-02-04T04:40:36.224Z,9.47
2018-02-04T04:43:04.035Z,9.83
2018-02-04T04:45:31.820Z,9.33
2018-02-04T04:47:59.658Z,9.00
2018-02-04T04:50:27.451Z,9.97
2018-02-04T04:52:55.320Z,10.10
2018-02-04T04:55:23.127Z,9.40
2018-02-04T04:57:51.039Z,10.10
2018-02-04T05:00:18.857Z,9.83
2018-02-04T05:02:46.719Z,10.30
2018-02-04T05:05:14.648Z,9.87
2018-02-04T05:07:42.487Z,9.47
2018-02-04T05:10:10.284Z,10.03
2018-02-04T05:12:38.100Z,10.30
2018-02-04T05:15:05.906Z,10.57
2018-02-04T05:17:33.731Z,10.00
2018-02-04T05:20:01.548Z,10.20
2018-02-04T05:22:29.471Z,10.23
2018-02-04T05:24:57.292Z,10.10
2018-02-04T05:27:25.216Z,10.50
2018-02-04T05:29:53.020Z,10.20
2018-02-04T05:32:20.831Z,9.50
2018-02-04T05:34:48.653Z,10.80
2018-02-04T05:37:16.479Z,10.37
2018-02-04T05:39:44.300Z,9.07
2018-02-04T05:42:12.067Z,9.90
2018-02-04T05:44:39.905Z,8.30
2018-02-04T05:47:07.794Z,10.00
2018-02-04T05:49:35.687Z,10.60
2018-02-04T05:52:03.474Z,10.23
2018-02-04T05:54:31.343Z,10.50
2018-02-04T05:56:59.114Z,9.80
2018-02-04T05:59:26.928Z,10.23
2018-02-04T06:01:54.711Z,9.77
2018-02-04T06:04:22.538Z,9.70
2018-02-04T06:06:50.343Z,9.73
2018-02-04T06:09:18.158Z,9.37
2018-02-04T06:11:45.976Z,10.27
2018-02-04T06:14:13.848Z,10.20
2018-02-04T06:16:41.648Z,9.73
2018-02-04T06:19:09.487Z,10.57
2018-02-04T06:21:37.341Z,9.47
2018-02-04T06:24:05.234Z,10.13
2018-02-04T06:26:33.112Z,9.00
2018-02-04T06:29:00.944Z,9.47
2018-02-04T06:31:28.741Z,8.17
2018-02-04T06:33:56.645Z,9.43
2018-02-04T06:36:24.488Z,8.73
2018-02-04T06:38:52.375Z,9.10
2018-02-04T06:41:20.170Z,9.20
2018-02-04T06:43:47.995Z,8.90
2018-02-04T06:46:15.816Z,9.80
2018-02-04T06:48:43.667Z,8.20
2018-02-04T06:51:11.480Z,9.80
2018-02-04T06:53:39.356Z,9.63
2018-02-04T06:56:07.203Z,9.30
2018-02-04T06:58:35.097Z,10.17
2018-02-04T07:01:02.853Z,8.93
2018-02-04T07:03:30.698Z,8.90
2018-02-04T07:05:58.511Z,9.13
2018-02-04T07:08:26.361Z,8.40
2018-02-04T07:10:54.189Z,8.63
2018-02-04T07:13:22.055Z,8.23
2018-02-04T07:15:49.896Z,8.70
2018-02-04T07:18:17.768Z,9.10
2018-02-04T07:20:45.651Z,9.10
2018-02-04T07:23:13.508Z,8.33
2018-02-04T07:25:41.376Z,8.47
2018-02-04T07:28:09.207Z,8.47
2018-02-04T07:30:37.139Z,7.60
2018-02-04T07:33:04.967Z,8.40
2018-02-04T07:35:32.882Z,8.10
2018-02-04T07:38:00.731Z,6.07
2018-02-04T07:40:28.596Z,7.20
2018-02-04T07:42:56.424Z,6.70
2018-02-04T07:45:24.292Z,7.90
2018-02-04T07:47:52.071Z,7.50
2018-02-04T07:50:19.899Z,8.63
2018-02-04T07:52:47.716Z,8.70
2018-02-04T07:55:15.578Z,8.03
2018-02-04T07:57:43.462Z,8.30
2018-02-04T08:00:11.311Z,8.53
2018-02-04T08:02:39.139Z,7.70
2018-02-04T08:05:07.038Z,7.33
2018-02-04T08:07:34.859Z,6.73
2018-02-04T08:10:02.728Z,6.67
2018-02-04T08:12:30.532Z,6.53
2018-02-04T08:14:58.408Z,6.53
2018-02-04T08:17:26.204Z,6.70
2018-02-04T08:19:54.060Z,6.30
2018-02-04T08:22:21.920Z,6.50
2018-02-04T08:24:49.791Z,6.10
2018-02-04T08:27:17.591Z,5.97
2018-02-04T08:29:45.459Z,6.00
2018-02-04T08:32:13.319Z,5.60
2018-02-04T08:34:41.180Z,4.73
2018-02-04T08:37:09.115Z,5.77
2018-02-04T08:39:37.000Z,6.10
2018-02-04T08:42:04.815Z,6.20
2018-02-04T08:44:32.699Z,5.73
2018-02-04T08:47:00.516Z,5.93
2018-02-04T08:49:28.358Z,6.13
2018-02-04T08:51:56.168Z,6.63
2018-02-04T08:54:24.110Z,6.00
2018-02-04T08:56:51.920Z,5.83
2018-02-04T08:59:19.769Z,6.17
2018-02-04T09:01:47.579Z,5.97
2018-02-04T09:04:15.373Z,6.00
2018-02-04T09:06:43.252Z,5.60
2018-02-04T09:09:11.141Z,5.87
2018-02-04T09:11:39.060Z,5.70
2018-02-04T09:14:06.893Z,5.90
2018-02-04T09:16:34.739Z,5.07
2018-02-04T09:19:02.577Z,5.90
2018-02-04T09:21:30.435Z,6.10
2018-02-04T09:23:58.460Z,5.90
2018-02-04T09:26:26.301Z,6.10
2018-02-04T09:28:54.132Z,5.73
2018-02-04T09:31:21.981Z,5.50
2018-02-04T09:33:49.834Z,5.83
2018-02-04T09:36:17.699Z,5.80
2018-02-04T09:38:45.559Z,6.10
2018-02-04T09:41:13.412Z,6.10
2018-02-04T09:43:41.272Z,6.03
2018-02-04T09:46:09.158Z,6.27
2018-02-04T09:48:36.984Z,6.43
2018-02-04T09:51:04.840Z,5.67
2018-02-04T09:53:32.614Z,5.83
2018-02-04T09:56:00.479Z,6.10
2018-02-04T09:58:28.323Z,5.60
2018-02-04T10:00:56.168Z,5.37
2018-02-04T10:03:23.986Z,5.53
2018-02-04T10:05:51.871Z,4.97
2018-02-04T10:08:19.685Z,4.90
2018-02-04T10:10:47.524Z,4.80
2018-02-04T10:13:15.303Z,5.33
2018-02-04T10:15:43.076Z,5.40
2018-02-04T10:18:10.896Z,5.10
2018-02-04T10:20:38.699Z,5.30
2018-02-04T10:23:06.572Z,5.47
2018-02-04T10:25:34.362Z,4.80
2018-02-04T10:28:02.203Z,5.40
2018-02-04T10:30:30.032Z,5.90
2018-02-04T10:32:57.855Z,5.87
2018-02-04T10:35:25.640Z,5.63
2018-02-04T10:37:53.499Z,6.27
2018-02-04T10:40:21.401Z,5.53
2018-02-04T10:42:49.251Z,6.27
2018-02-04T10:45:16.995Z,6.10
2018-02-04T10:47:44.862Z,5.10
2018-02-04T10:50:12.695Z,5.33
2018-02-04T10:52:40.556Z,5.80
2018-02-04T10:55:08.438Z,5.07
2018-02-04T10:57:36.320Z,5.33
2018-02-04T11:00:04.232Z,5.83
2018-02-04T11:02:32.086Z,4.83
2018-02-04T11:04:59.894Z,5.77
2018-02-04T11:07:27.743Z,6.00
2018-02-04T11:09:55.524Z,5.40
2018-02-04T11:12:23.392Z,5.20
2018-02-04T11:14:51.218Z,5.93
2018-02-04T11:17:19.103Z,5.40
2018-02-04T11:19:46.894Z,5.50
2018-02-04T11:22:14.915Z,5.27
2018-02-04T11:24:42.741Z,4.87
2018-02-04T11:27:10.624Z,4.83
2018-02-04T11:29:38.443Z,5.30
2018-02-04T11:32:18.076Z,5.50
2018-02-04T11:34:45.871Z,6.63
2018-02-04T11:37:13.723Z,5.57
2018-02-04T11:39:41.570Z,5.83
2018-02-04T11:42:09.426Z,5.10
2018-02-04T11:44:37.195Z,5.73
2018-02-04T11:47:05.026Z,5.33
2018-02-04T11:49:32.879Z,5.63
2018-02-04T11:52:00.799Z,5.03
2018-02-04T11:54:28.705Z,6.77
2018-02-04T11:56:56.599Z,6.10
2018-02-04T11:59:24.512Z,5.67
2018-02-04T12:01:52.367Z,4.70
2018-02-04T12:04:20.189Z,5.87
2018-02-04T12:06:48.031Z,5.37
2018-02-04T12:09:15.764Z,5.30
2018-02-04T12:11:43.544Z,5.30
2018-02-04T12:14:11.390Z,6.03
2018-02-04T12:16:39.203Z,6.37
2018-02-04T12:19:07.108Z,5.27
2018-02-04T12:21:34.907Z,6.97
2018-02-04T12:24:02.756Z,6.40
2018-02-04T12:26:30.543Z,6.47
2018-02-04T12:28:58.394Z,6.47
2018-02-04T12:31:26.212Z,5.90
2018-02-04T12:33:54.055Z,4.93
2018-02-04T12:36:21.903Z,6.10
2018-02-04T12:38:50.704Z,4.77
2018-02-04T12:41:18.517Z,4.77
2018-02-04T12:43:46.423Z,5.70
2018-02-04T12:46:14.217Z,5.00
2018-02-04T12:48:42.102Z,5.80
2018-02-04T12:51:09.979Z,6.07
2018-02-04T12:53:37.868Z,6.20
2018-02-04T12:56:05.734Z,4.97
2018-02-04T12:58:33.601Z,5.67
2018-02-04T13:01:01.415Z,6.10
2018-02-04T13:03:29.332Z,6.87
2018-02-04T13:05:57.164Z,5.70
2018-02-04T13:08:25.065Z,6.10
2018-02-04T13:10:52.877Z,6.23
2018-02-04T13:13:20.744Z,5.13
2018-02-04T13:15:48.548Z,6.77
2018-02-04T13:18:16.409Z,5.60
2018-02-04T13:20:44.235Z,6.40
2018-02-04T13:23:12.078Z,6.53
2018-02-04T13:25:39.922Z,6.37
2018-02-04T13:28:07.838Z,6.10
2018-02-04T13:30:35.622Z,7.23
2018-02-04T13:33:03.508Z,6.80
2018-02-04T13:35:31.326Z,6.07
2018-02-04T13:37:59.200Z,7.47
2018-02-04T13:40:27.063Z,7.17
2018-02-04T13:42:54.899Z,7.60
2018-02-04T13:45:22.696Z,7.67
2018-02-04T13:47:50.567Z,7.97
2018-02-04T13:50:18.372Z,8.00
2018-02-04T13:52:46.207Z,7.03
2018-02-04T13:55:14.108Z,7.03
2018-02-04T13:57:41.939Z,8.63
2018-02-04T14:00:09.831Z,6.23
2018-02-04T14:02:37.647Z,7.70
2018-02-04T14:05:05.554Z,7.20
2018-02-04T14:07:33.395Z,8.50
2018-02-04T14:10:01.269Z,7.27
2018-02-04T14:12:29.076Z,6.00
2018-02-04T14:14:56.939Z,6.87
2018-02-04T14:17:24.746Z,7.67
2018-02-04T14:19:52.613Z,7.10
2018-02-04T14:22:20.397Z,7.37
2018-02-04T14:24:48.223Z,7.83
2018-02-04T14:27:16.072Z,8.03
2018-02-04T14:29:43.965Z,7.00
2018-02-04T14:32:11.768Z,7.70
2018-02-04T14:34:39.635Z,8.90
2018-02-04T14:37:07.483Z,8.27
2018-02-04T14:39:35.400Z,9.20
2018-02-04T14:42:03.194Z,8.57
2018-02-04T14:44:31.108Z,8.90
2018-02-04T14:46:58.992Z,8.10
2018-02-04T14:49:26.830Z,9.20
2018-02-04T14:51:54.631Z,9.43
2018-02-04T14:54:22.470Z,9.27
2018-02-04T14:56:50.236Z,9.00
2018-02-04T14:59:18.137Z,9.10
2018-02-04T15:01:45.964Z,9.20
2018-02-04T15:04:13.817Z,10.23
2018-02-04T15:06:41.651Z,9.80
2018-02-04T15:09:09.563Z,10.00
2018-02-04T15:11:37.388Z,10.20
2018-02-04T15:14:05.220Z,9.40
2018-02-04T15:16:33.027Z,9.87
2018-02-04T15:19:00.875Z,9.77
2018-02-04T15:21:28.700Z,8.90
2018-02-04T15:23:56.543Z,8.80
2018-02-04T15:26:24.341Z,9.87
2018-02-04T15:28:52.148Z,9.83
2018-02-04T15:31:19.923Z,9.27
2018-02-04T15:33:47.799Z,8.40
2018-02-04T15:36:15.641Z,9.53
2018-02-04T15:38:43.477Z,8.93
2018-02-04T15:41:11.312Z,8.17
2018-02-04T15:43:39.114Z,8.63
2018-02-04T15:46:06.977Z,7.90
2018-02-04T15:48:34.775Z,8.40
2018-02-04T15:51:02.640Z,8.33
2018-02-04T15:53:30.457Z,8.57
2018-02-04T15:55:58.506Z,7.90
2018-02-04T15:58:26.356Z,8.70
2018-02-04T16:00:54.239Z,7.43
2018-02-04T16:03:22.064Z,8.77
2018-02-04T16:05:49.920Z,8.80
2018-02-04T16:08:18.567Z,8.20
2018-02-04T16:10:46.485Z,8.47
2018-02-04T16:13:14.301Z,7.83
2018-02-04T16:15:42.195Z,7.50
2018-02-04T16:18:10.012Z,8.37
2018-02-04T16:20:37.854Z,8.20
2018-02-04T16:23:06.082Z,9.27
2018-02-04T16:25:33.937Z,8.67
2018-02-04T16:28:01.824Z,7.47
2018-02-04T16:30:29.696Z,7.67
2018-02-04T16:32:57.552Z,7.63
2018-02-04T16:35:25.432Z,7.73
2018-02-04T16:37:53.250Z,8.20
2018-02-04T16:40:39.336Z,8.70
2018-02-04T16:43:07.136Z,6.83
2018-02-04T16:45:35.031Z,8.30
2018-02-04T16:48:02.860Z,7.40
2018-02-04T16:50:30.750Z,7.80
2018-02-04T16:52:58.534Z,8.10
2018-02-04T16:55:26.387Z,6.50
2018-02-04T16:57:54.210Z,7.70
2018-02-04T17:00:22.372Z,7.00
2018-02-04T17:02:50.200Z,7.20
2018-02-04T17:05:18.095Z,6.60
2018-02-04T17:07:45.934Z,7.23
2018-02-04T17:10:13.756Z,7.90
2018-02-04T17:12:41.530Z,7.37
2018-02-04T17:15:09.355Z,7.00
2018-02-04T17:17:37.215Z,7.33
2018-02-04T17:20:05.107Z,7.37
2018-02-04T17:22:32.916Z,7.07
2018-02-04T17:25:00.777Z,7.60
2018-02-04T17:27:28.594Z,7.10
2018-02-04T17:29:56.509Z,8.13
2018-02-04T17:32:24.314Z,7.87
2018-02-04T17:34:52.146Z,7.47
2018-02-04T17:37:20.053Z,7.30
2018-02-04T17:39:47.999Z,7.77
2018-02-04T17:42:15.860Z,7.20
2018-02-04T17:44:43.732Z,7.00
2018-02-04T17:47:11.647Z,8.07
2018-02-04T17:49:39.498Z,8.27
2018-02-04T17:52:07.426Z,7.23
2018-02-04T17:54:35.271Z,6.67
2018-02-04T17:57:03.198Z,8.17
2018-02-04T17:59:31.032Z,7.43
2018-02-04T18:01:58.938Z,7.67
2018-02-04T18:04:26.769Z,7.40
2018-02-04T18:06:54.614Z,6.10
2018-02-04T18:09:22.441Z,8.23
2018-02-04T18:11:50.479Z,7.63
2018-02-04T18:14:18.332Z,8.50
2018-02-04T18:16:46.213Z,6.67
2018-02-04T18:19:14.011Z,6.17
2018-02-04T18:21:41.863Z,6.70
2018-02-04T18:24:09.708Z,7.20
2018-02-04T18:26:37.596Z,6.83
2018-02-04T18:29:05.407Z,7.13
2018-02-04T18:31:33.288Z,6.47
2018-02-04T18:34:01.105Z,6.43
2018-02-04T18:36:29.024Z,6.83
2018-02-04T18:38:57.001Z,6.30
2018-02-04T18:41:24.843Z,6.23
2018-02-04T18:43:52.645Z,6.53
2018-02-04T18:46:20.541Z,6.90
2018-02-04T18:48:48.381Z,6.97
2018-02-04T18:51:16.244Z,6.87
2018-02-04T18:53:44.054Z,6.30
2018-02-04T18:56:11.905Z,6.50
2018-02-04T18:58:39.737Z,6.03
2018-02-04T19:01:07.608Z,6.60
2018-02-04T19:03:35.456Z,6.00
2018-02-04T19:06:03.323Z,6.27
2018-02-04T19:08:31.133Z,4.50
2018-02-04T19:10:58.989Z,6.20
2018-02-04T19:13:26.837Z,6.30
2018-02-04T19:15:54.688Z,5.90
2018-02-04T19:18:22.463Z,6.40
2018-02-04T19:20:50.324Z,5.40
2018-02-04T19:23:18.157Z,5.80
2018-02-04T19:25:45.976Z,6.60
2018-02-04T19:28:13.836Z,6.00
2018-02-04T19:30:41.682Z,5.67
2018-02-04T19:33:09.507Z,6.20
2018-02-04T19:35:37.350Z,5.90
2018-02-04T19:38:05.193Z,6.33
2018-02-04T19:40:33.032Z,5.80
2018-02-04T19:43:00.897Z,5.40
2018-02-04T19:45:28.737Z,5.47
2018-02-04T19:47:56.607Z,5.47
2018-02-04T19:50:24.421Z,5.60
2018-02-04T19:52:52.293Z,5.00
2018-02-04T19:55:20.093Z,5.80
2018-02-04T19:57:47.986Z,5.73
2018-02-04T20:00:15.834Z,5.40
2018-02-04T20:02:43.705Z,5.63
2018-02-04T20:05:11.502Z,5.80
2018-02-04T20:07:39.328Z,5.97
2018-02-04T20:10:07.172Z,5.80
2018-02-04T20:12:35.035Z,5.57
2018-02-04T20:15:02.862Z,5.17
2018-02-04T20:17:30.745Z,5.10
2018-02-04T20:19:58.568Z,5.13
2018-02-04T20:22:26.399Z,5.13
2018-02-04T20:24:54.161Z,5.40
2018-02-04T20:27:22.031Z,5.13
2018-02-04T20:29:49.886Z,4.70
2018-02-04T20:32:29.504Z,5.60
2018-02-04T20:34:57.304Z,4.60
2018-02-04T20:37:25.153Z,5.57
2018-02-04T20:39:52.996Z,5.70
2018-02-04T20:42:20.860Z,5.70
2018-02-04T20:44:48.651Z,4.90
2018-02-04T20:47:16.493Z,4.77
2018-02-04T20:49:44.283Z,5.00
2018-02-04T20:52:12.118Z,4.40
2018-02-04T20:54:39.945Z,4.53
2018-02-04T20:57:07.821Z,4.00
2018-02-04T20:59:35.645Z,4.53
2018-02-04T21:02:03.501Z,4.23
2018-02-04T21:04:31.327Z,4.47
2018-02-04T21:06:59.162Z,4.20
2018-02-04T21:09:26.900Z,4.57
2018-02-04T21:11:54.745Z,4.30
2018-02-04T21:14:22.584Z,4.20
2018-02-04T21:16:50.377Z,3.93
2018-02-04T21:19:18.220Z,4.17
2018-02-04T21:21:45.998Z,3.93
2018-02-04T21:24:13.866Z,3.90
2018-02-04T21:26:41.701Z,4.37
2018-02-04T21:29:09.532Z,3.87
2018-02-04T21:31:37.403Z,3.90
2018-02-04T21:34:05.278Z,3.63
2018-02-04T21:36:33.105Z,3.40
2018-02-04T21:39:01.041Z,3.63
2018-02-04T21:41:28.844Z,3.80
2018-02-04T21:43:56.691Z,3.60
2018-02-04T21:46:24.541Z,3.27
2018-02-04T21:48:52.464Z,3.60
2018-02-04T21:51:20.307Z,3.00
2018-02-04T21:53:48.131Z,3.33
2018-02-04T21:56:15.929Z,3.03
2018-02-04T21:58:43.824Z,3.53
2018-02-04T22:01:11.665Z,3.17
2018-02-04T22:03:39.524Z,2.40
2018-02-04T22:06:07.340Z,3.07
2018-02-04T22:08:35.196Z,3.13
2018-02-04T22:11:03.043Z,3.17
2018-02-04T22:13:30.903Z,3.30
2018-02-04T22:15:58.696Z,4.00
2018-02-04T22:18:26.543Z,3.20
2018-02-04T22:20:54.328Z,2.97
2018-02-04T22:23:22.179Z,2.97
2018-02-04T22:25:49.971Z,2.90
2018-02-04T22:28:17.781Z,3.23
2018-02-04T22:30:45.570Z,3.00
2018-02-04T22:33:13.454Z,2.83
2018-02-04T22:35:41.283Z,3.47
2018-02-04T22:38:09.121Z,2.90
2018-02-04T22:40:36.991Z,3.00
2018-02-04T22:43:04.837Z,3.17
2018-02-04T22:45:32.683Z,3.20
2018-02-04T22:48:00.596Z,3.20
2018-02-04T22:50:28.435Z,3.83
2018-02-04T22:52:56.330Z,3.40
2018-02-04T22:55:24.147Z,3.30
2018-02-04T22:57:52.029Z,3.03
2018-02-04T23:00:19.895Z,3.07
2018-02-04T23:02:47.696Z,3.37
2018-02-04T23:05:15.655Z,3.80
2018-02-04T23:07:43.456Z,4.07
2018-02-04T23:10:11.303Z,3.47
2018-02-04T23:12:39.130Z,3.60
2018-02-04T23:15:06.982Z,3.97
2018-02-04T23:17:34.774Z,4.00
2018-02-04T23:20:02.699Z,3.77
2018-02-04T23:22:30.488Z,3.60
2018-02-04T23:24:58.410Z,3.37
2018-02-04T23:27:26.199Z,3.80
2018-02-04T23:29:54.063Z,3.90
2018-02-04T23:32:21.881Z,4.17
2018-02-04T23:34:49.785Z,3.63
2018-02-04T23:37:17.599Z,3.70
2018-02-04T23:39:45.483Z,3.20
2018-02-04T23:42:13.284Z,4.13
2018-02-04T23:44:41.127Z,3.47
2018-02-04T23:47:08.894Z,4.27
2018-02-04T23:49:36.734Z,3.50
2018-02-04T23:52:04.587Z,3.47
2018-02-04T23:54:32.472Z,3.30
2018-02-04T23:57:00.286Z,3.03
2018-02-04T23:59:28.145Z,3.10
